createdAt,value
2019-05-17T00:01:27.057Z,101310.48
2019-05-17T00:03:57.281Z,101306.69
2019-05-17T00:06:27.662Z,101305.31
2019-05-17T00:08:57.753Z,101300.67
2019-05-17T00:11:27.868Z,101305.62
2019-05-17T00:13:58.229Z,101301.31
2019-05-17T00:16:28.388Z,101296.45
2019-05-17T00:18:58.522Z,101295.00
2019-05-17T00:21:28.682Z,101293.19
2019-05-17T00:23:58.852Z,101286.79
2019-05-17T00:26:31.609Z,101287.44
2019-05-17T00:29:01.785Z,101266.75
2019-05-17T00:31:32.056Z,101280.84
2019-05-17T00:34:02.281Z,101282.08
2019-05-17T00:36:32.455Z,101270.23
2019-05-17T00:39:02.827Z,101276.63
2019-05-17T00:41:32.988Z,101273.41
2019-05-17T00:44:03.136Z,101269.81
2019-05-17T00:46:33.320Z,101264.06
2019-05-17T00:49:03.541Z,101273.41
2019-05-17T00:51:33.691Z,101269.72
2019-05-17T00:54:03.869Z,101267.25
2019-05-17T00:56:37.205Z,101266.09
2019-05-17T00:59:07.595Z,101262.61
2019-05-17T01:01:37.777Z,101262.61
2019-05-17T01:04:07.857Z,101249.45
2019-05-17T01:06:38.038Z,101248.01
2019-05-17T01:09:08.622Z,101243.22
2019-05-17T01:11:38.871Z,101239.73
2019-05-17T01:14:09.127Z,101237.05
2019-05-17T01:16:39.291Z,101234.06
2019-05-17T01:19:09.435Z,101230.80
2019-05-17T01:21:39.621Z,101236.77
2019-05-17T01:24:09.781Z,101230.65
2019-05-17T01:26:39.990Z,101227.77
2019-05-17T01:29:10.159Z,101225.93
2019-05-17T01:31:41.747Z,101225.58
2019-05-17T01:34:11.921Z,101223.63
2019-05-17T01:36:42.190Z,101218.19
2019-05-17T01:39:17.306Z,101221.44
2019-05-17T01:41:44.200Z,101208.57
2019-05-17T01:44:16.540Z,101212.43
2019-05-17T01:46:46.571Z,101204.08
2019-05-17T01:49:16.683Z,101209.26
2019-05-17T01:51:46.850Z,101198.14
2019-05-17T01:54:17.611Z,101197.48
2019-05-17T01:56:48.904Z,101201.02
2019-05-17T01:59:20.274Z,101201.55
2019-05-17T02:01:52.092Z,101203.13
2019-05-17T02:04:22.379Z,101194.92
2019-05-17T02:06:52.556Z,101196.37
2019-05-17T02:09:34.846Z,101193.77
2019-05-17T02:11:57.186Z,101188.75
2019-05-17T02:14:27.453Z,101198.93
2019-05-17T02:16:57.799Z,101195.14
2019-05-17T02:19:29.045Z,101193.45
2019-05-17T02:21:59.123Z,101198.62
2019-05-17T02:24:29.337Z,101198.47
2019-05-17T02:26:59.622Z,101204.54
2019-05-17T02:29:32.046Z,101202.41
2019-05-17T02:32:03.786Z,101193.09
2019-05-17T02:34:34.764Z,101190.70
2019-05-17T02:37:04.885Z,101187.38
2019-05-17T02:39:52.386Z,101183.95
2019-05-17T02:42:06.904Z,101178.89
2019-05-17T02:44:37.523Z,101175.11
2019-05-17T02:47:07.686Z,101172.19
2019-05-17T02:49:37.840Z,101172.99
2019-05-17T02:52:12.188Z,101176.72
2019-05-17T02:54:43.745Z,101173.63
2019-05-17T02:57:14.147Z,101164.31
2019-05-17T02:59:45.614Z,101166.27
2019-05-17T03:02:15.755Z,101162.79
2019-05-17T03:04:45.896Z,101160.33
2019-05-17T03:07:16.137Z,101162.36
2019-05-17T03:09:46.891Z,101162.36
2019-05-17T03:12:17.097Z,101162.36
2019-05-17T03:14:52.651Z,101159.95
2019-05-17T03:17:22.986Z,101165.23
2019-05-17T03:19:54.942Z,101156.92
2019-05-17T03:22:25.105Z,101153.94
2019-05-17T03:24:55.259Z,101146.75
2019-05-17T03:27:25.395Z,101152.05
2019-05-17T03:29:55.572Z,101155.31
2019-05-17T03:32:27.209Z,101156.63
2019-05-17T03:34:57.997Z,101148.66
2019-05-17T03:37:36.348Z,101152.79
2019-05-17T03:40:04.595Z,101151.03
2019-05-17T03:42:33.313Z,101150.78
2019-05-17T03:45:03.492Z,101148.50
2019-05-17T03:47:33.786Z,101150.02
2019-05-17T03:50:04.440Z,101142.09
2019-05-17T03:52:34.503Z,101144.20
2019-05-17T03:55:05.009Z,101140.49
2019-05-17T03:57:36.259Z,101142.74
2019-05-17T04:00:07.021Z,101151.63
2019-05-17T04:02:37.245Z,101143.47
2019-05-17T04:05:07.590Z,101145.08
2019-05-17T04:07:37.896Z,101142.74
2019-05-17T04:10:08.247Z,101147.59
2019-05-17T04:12:38.445Z,101143.81
2019-05-17T04:15:08.910Z,101145.83
2019-05-17T04:17:39.088Z,101147.02
2019-05-17T04:20:09.421Z,101142.92
2019-05-17T04:22:39.602Z,101142.68
2019-05-17T04:25:13.123Z,101141.17
2019-05-17T04:27:43.596Z,101138.61
2019-05-17T04:30:14.029Z,101140.95
2019-05-17T04:32:44.696Z,101137.19
2019-05-17T04:35:16.620Z,101144.73
2019-05-17T04:37:47.498Z,101143.08
2019-05-17T04:40:17.821Z,101138.80
2019-05-17T04:42:47.987Z,101140.72
2019-05-17T04:45:18.121Z,101133.67
2019-05-17T04:47:48.279Z,101128.16
2019-05-17T04:50:18.810Z,101129.77
2019-05-17T04:52:49.146Z,101125.20
2019-05-17T04:55:19.389Z,101130.00
2019-05-17T04:57:52.656Z,101131.65
2019-05-17T05:00:22.009Z,101129.23
2019-05-17T05:02:53.146Z,101134.74
2019-05-17T05:05:23.426Z,101130.27
2019-05-17T05:07:53.793Z,101133.90
2019-05-17T05:10:24.092Z,101132.56
2019-05-17T05:12:54.250Z,101127.38
2019-05-17T05:15:39.569Z,101130.27
2019-05-17T05:18:12.917Z,101132.13
2019-05-17T05:20:43.437Z,101128.92
2019-05-17T05:23:15.107Z,101126.62
2019-05-17T05:25:45.378Z,101139.67
2019-05-17T05:28:15.630Z,101132.30
2019-05-17T05:30:45.794Z,101130.72
2019-05-17T05:33:15.963Z,101126.97
2019-05-17T05:35:46.109Z,101124.75
2019-05-17T05:38:16.266Z,101117.79
2019-05-17T05:40:46.420Z,101125.34
2019-05-17T05:43:16.642Z,101129.35
2019-05-17T05:45:46.738Z,101122.88
2019-05-17T05:48:17.060Z,101122.30
2019-05-17T05:50:47.207Z,101132.61
2019-05-17T05:53:18.418Z,101121.73
2019-05-17T05:55:48.529Z,101124.19
2019-05-17T05:58:18.818Z,101125.06
2019-05-17T06:00:48.932Z,101123.88
2019-05-17T06:03:19.278Z,101120.20
2019-05-17T06:05:49.395Z,101116.34
2019-05-17T06:08:19.648Z,101120.36
2019-05-17T06:10:49.770Z,101118.45
2019-05-17T06:13:21.858Z,101118.33
2019-05-17T06:15:51.881Z,101116.42
2019-05-17T06:18:22.697Z,101127.75
2019-05-17T06:20:56.659Z,101123.16
2019-05-17T06:23:28.049Z,101124.20
2019-05-17T06:25:58.174Z,101123.47
2019-05-17T06:28:28.309Z,101126.22
2019-05-17T06:30:58.451Z,101118.91
2019-05-17T06:33:33.769Z,101114.30
2019-05-17T06:36:02.703Z,101115.77
2019-05-17T06:38:33.415Z,101113.43
2019-05-17T06:41:03.616Z,101107.27
2019-05-17T06:43:33.856Z,101095.14
2019-05-17T06:46:04.189Z,101103.11
2019-05-17T06:48:34.506Z,101099.34
2019-05-17T06:51:04.764Z,101100.83
2019-05-17T06:53:34.991Z,101101.60
2019-05-17T06:56:06.260Z,101096.44
2019-05-17T06:58:38.115Z,101098.36
2019-05-17T07:01:09.515Z,101099.33
2019-05-17T07:03:40.070Z,101093.91
2019-05-17T07:06:13.545Z,101097.03
2019-05-17T07:08:43.719Z,101090.48
2019-05-17T07:11:13.803Z,101095.41
2019-05-17T07:13:43.950Z,101091.06
2019-05-17T07:16:14.173Z,101084.92
2019-05-17T07:18:44.425Z,101076.00
2019-05-17T07:21:14.638Z,101084.92
2019-05-17T07:23:44.843Z,101084.84
2019-05-17T07:26:15.015Z,101079.66
2019-05-17T07:28:45.234Z,101085.18
2019-05-17T07:31:16.538Z,101078.74
2019-05-17T07:33:50.417Z,101081.92
2019-05-17T07:36:20.311Z,101078.30
2019-05-17T07:38:50.596Z,101079.52
2019-05-17T07:41:20.748Z,101079.48
2019-05-17T07:43:51.491Z,101077.48
2019-05-17T07:46:21.716Z,101081.42
2019-05-17T07:48:52.930Z,101080.05
2019-05-17T07:51:23.095Z,101074.16
2019-05-17T07:53:53.251Z,101070.38
2019-05-17T07:56:23.520Z,101077.81
2019-05-17T07:58:54.561Z,101074.69
2019-05-17T08:01:26.310Z,101071.44
2019-05-17T08:03:56.493Z,101070.23
2019-05-17T08:06:26.816Z,101066.04
2019-05-17T08:09:01.161Z,101065.73
2019-05-17T08:11:31.105Z,101056.55
2019-05-17T08:14:02.841Z,101060.81
2019-05-17T08:16:33.054Z,101055.02
2019-05-17T08:19:03.225Z,101050.19
2019-05-17T08:21:33.463Z,101055.94
2019-05-17T08:24:03.604Z,101051.13
2019-05-17T08:26:33.893Z,101049.70
2019-05-17T08:29:05.592Z,101045.38
2019-05-17T08:31:35.765Z,101036.09
2019-05-17T08:34:06.051Z,101034.82
2019-05-17T08:36:36.207Z,101034.13
2019-05-17T08:39:10.128Z,101028.11
2019-05-17T08:41:40.558Z,101032.86
2019-05-17T08:44:10.825Z,101029.17
2019-05-17T08:46:41.036Z,101018.58
2019-05-17T08:49:11.243Z,101025.16
2019-05-17T08:51:41.490Z,101023.06
2019-05-17T08:54:11.694Z,101021.02
2019-05-17T08:56:41.806Z,101019.23
2019-05-17T08:59:11.972Z,101020.30
2019-05-17T09:01:42.269Z,101016.03
2019-05-17T09:04:12.392Z,101018.49
2019-05-17T09:06:44.212Z,101005.31
2019-05-17T09:09:14.376Z,101007.11
2019-05-17T09:11:44.616Z,101001.66
2019-05-17T09:14:14.772Z,100996.31
2019-05-17T09:16:44.911Z,100993.78
2019-05-17T09:19:16.434Z,100996.68
2019-05-17T09:21:53.941Z,100991.88
2019-05-17T09:24:24.231Z,100989.55
2019-05-17T09:26:55.315Z,100994.13
2019-05-17T09:29:25.581Z,100985.59
2019-05-17T09:31:55.729Z,100990.50
2019-05-17T09:34:25.879Z,100988.69
2019-05-17T09:36:56.091Z,100984.12
2019-05-17T09:39:26.355Z,100975.71
2019-05-17T09:41:56.548Z,100978.45
2019-05-17T09:44:26.699Z,100970.93
2019-05-17T09:46:59.343Z,100975.82
2019-05-17T09:49:29.934Z,100974.50
2019-05-17T09:52:00.282Z,100965.92
2019-05-17T09:54:41.439Z,100961.14
2019-05-17T09:57:02.645Z,100963.30
2019-05-17T09:59:32.845Z,100962.05
2019-05-17T10:02:04.228Z,100959.13
2019-05-17T10:04:34.440Z,100960.49
2019-05-17T10:07:04.622Z,100954.91
2019-05-17T10:09:35.515Z,100957.02
2019-05-17T10:12:05.868Z,100955.40
2019-05-17T10:14:36.037Z,100956.30
2019-05-17T10:17:06.386Z,100957.44
2019-05-17T10:19:36.590Z,100958.68
2019-05-17T10:22:06.773Z,100960.22
2019-05-17T10:24:39.651Z,100948.80
2019-05-17T10:27:10.925Z,100949.58
2019-05-17T10:29:40.819Z,100947.72
2019-05-17T10:32:11.885Z,100949.11
2019-05-17T10:34:42.129Z,100948.30
2019-05-17T10:37:14.314Z,100952.17
2019-05-17T10:39:44.591Z,100948.82
2019-05-17T10:42:15.865Z,100954.44
2019-05-17T10:44:47.804Z,100951.48
2019-05-17T10:47:19.559Z,100946.55
2019-05-17T10:49:50.740Z,100953.25
2019-05-17T10:52:21.016Z,100950.50
2019-05-17T10:54:51.851Z,100951.19
2019-05-17T10:57:24.905Z,100947.69
2019-05-17T10:59:55.226Z,100945.31
2019-05-17T11:02:25.575Z,100940.02
2019-05-17T11:04:55.830Z,100937.30
2019-05-17T11:07:26.136Z,100930.97
2019-05-17T11:09:56.347Z,100926.25
2019-05-17T11:12:26.593Z,100925.81
2019-05-17T11:15:10.242Z,100926.95
2019-05-17T11:17:31.095Z,100927.37
2019-05-17T11:20:01.443Z,100931.27
2019-05-17T11:22:31.710Z,100928.73
2019-05-17T11:25:02.106Z,100929.27
2019-05-17T11:27:32.629Z,100917.73
2019-05-17T11:30:02.849Z,100927.11
2019-05-17T11:32:33.107Z,100922.22
2019-05-17T11:35:03.449Z,100922.48
2019-05-17T11:37:34.366Z,100925.30
2019-05-17T11:40:08.000Z,100921.92
2019-05-17T11:42:37.032Z,100922.16
2019-05-17T11:45:07.307Z,100919.67
2019-05-17T11:47:37.472Z,100915.19
2019-05-17T11:50:08.426Z,100908.22
2019-05-17T11:52:38.582Z,100908.44
2019-05-17T11:55:08.808Z,100912.02
2019-05-17T11:57:40.906Z,100903.66
2019-05-17T12:00:11.961Z,100897.71
2019-05-17T12:02:42.123Z,100893.22
2019-05-17T12:05:13.295Z,100896.44
2019-05-17T12:07:44.406Z,100891.06
2019-05-17T12:10:15.253Z,100899.67
2019-05-17T12:12:45.442Z,100888.91
2019-05-17T12:15:15.658Z,100890.19
2019-05-17T12:17:45.833Z,100890.80
2019-05-17T12:20:16.599Z,100886.17
2019-05-17T12:22:46.849Z,100888.05
2019-05-17T12:25:17.066Z,100890.83
2019-05-17T12:27:47.544Z,100886.88
2019-05-17T12:30:17.883Z,100886.55
2019-05-17T12:32:48.196Z,100892.31
2019-05-17T12:35:19.567Z,100898.52
2019-05-17T12:37:49.958Z,100892.97
2019-05-17T12:40:20.276Z,100892.11
2019-05-17T12:42:50.565Z,100898.68
2019-05-17T12:45:23.569Z,100900.91
2019-05-17T12:47:53.841Z,100895.34
2019-05-17T12:50:24.139Z,100889.80
2019-05-17T12:52:54.362Z,100899.89
2019-05-17T12:55:24.491Z,100898.42
2019-05-17T12:57:56.849Z,100890.46
2019-05-17T13:00:27.045Z,100893.12
2019-05-17T13:02:57.312Z,100897.36
2019-05-17T13:05:27.460Z,100887.34
2019-05-17T13:07:57.682Z,100889.95
2019-05-17T13:10:27.796Z,100892.97
2019-05-17T13:12:58.068Z,100891.77
2019-05-17T13:15:28.203Z,100887.83
2019-05-17T13:17:58.451Z,100888.41
2019-05-17T13:20:38.119Z,100884.25
2019-05-17T13:23:08.351Z,100874.73
2019-05-17T13:25:38.602Z,100873.72
2019-05-17T13:28:08.811Z,100875.52
2019-05-17T13:30:38.965Z,100874.74
2019-05-17T13:33:10.546Z,100871.19
2019-05-17T13:35:40.695Z,100884.86
2019-05-17T13:38:10.985Z,100874.11
2019-05-17T13:40:41.165Z,100876.12
2019-05-17T13:43:12.239Z,100869.98
2019-05-17T13:45:43.933Z,100870.16
2019-05-17T13:48:15.335Z,100866.81
2019-05-17T13:50:45.505Z,100868.37
2019-05-17T13:53:15.932Z,100864.22
2019-05-17T13:55:46.166Z,100863.44
2019-05-17T13:58:16.457Z,100862.07
2019-05-17T14:00:46.616Z,100857.51
2019-05-17T14:03:19.359Z,100858.89
2019-05-17T14:05:49.570Z,100854.34
2019-05-17T14:08:19.725Z,100854.13
2019-05-17T14:10:50.018Z,100866.03
2019-05-17T14:13:20.325Z,100863.44
2019-05-17T14:15:51.656Z,100863.05
2019-05-17T14:18:22.003Z,100857.27
2019-05-17T14:20:52.208Z,100864.44
2019-05-17T14:23:23.532Z,100866.00
2019-05-17T14:25:53.766Z,100863.20
2019-05-17T14:28:23.975Z,100856.84
2019-05-17T14:30:54.187Z,100860.86
2019-05-17T14:33:24.411Z,100857.70
2019-05-17T14:35:56.226Z,100856.12
2019-05-17T14:38:26.417Z,100851.94
2019-05-17T14:41:06.349Z,100853.34
2019-05-17T14:43:31.742Z,100854.89
2019-05-17T14:46:02.297Z,100852.53
2019-05-17T14:48:32.492Z,100855.11
2019-05-17T14:51:02.686Z,100851.93
2019-05-17T14:53:32.915Z,100848.37
2019-05-17T14:56:03.143Z,100851.67
2019-05-17T14:58:33.264Z,100857.22
2019-05-17T15:01:03.530Z,100856.00
2019-05-17T15:03:33.706Z,100848.67
2019-05-17T15:06:03.885Z,100844.90
2019-05-17T15:08:34.014Z,100851.66
2019-05-17T15:11:04.271Z,100846.30
2019-05-17T15:13:35.343Z,100844.88
2019-05-17T15:16:07.127Z,100839.60
2019-05-17T15:18:37.266Z,100847.73
2019-05-17T15:21:07.449Z,100835.48
2019-05-17T15:23:37.602Z,100834.11
2019-05-17T15:26:07.767Z,100835.88
2019-05-17T15:28:37.926Z,100836.09
2019-05-17T15:31:08.184Z,100826.37
2019-05-17T15:33:38.378Z,100828.55
2019-05-17T15:36:08.683Z,100822.81
2019-05-17T15:38:39.788Z,100824.59
2019-05-17T15:41:09.999Z,100821.65
2019-05-17T15:43:40.182Z,100819.05
2019-05-17T15:46:13.461Z,100818.47
2019-05-17T15:48:43.669Z,100824.80
2019-05-17T15:51:14.811Z,100817.48
2019-05-17T15:53:45.036Z,100822.83
2019-05-17T15:56:15.235Z,100822.63
2019-05-17T15:58:45.439Z,100820.23
2019-05-17T16:01:15.633Z,100817.47
2019-05-17T16:03:45.911Z,100818.84
2019-05-17T16:06:16.341Z,100813.04
2019-05-17T16:08:49.586Z,100821.97
2019-05-17T16:11:20.001Z,100820.25
2019-05-17T16:13:50.428Z,100811.88
2019-05-17T16:16:20.583Z,100808.30
2019-05-17T16:18:50.746Z,100804.14
2019-05-17T16:21:20.941Z,100801.75
2019-05-17T16:23:51.223Z,100807.30
2019-05-17T16:26:21.395Z,100805.73
2019-05-17T16:28:51.535Z,100801.53
2019-05-17T16:31:21.757Z,100797.77
2019-05-17T16:33:52.102Z,100794.98
2019-05-17T16:36:22.186Z,100793.79
2019-05-17T16:38:52.414Z,100790.63
2019-05-17T16:41:22.668Z,100790.03
2019-05-17T16:43:52.979Z,100787.77
2019-05-17T16:46:23.141Z,100790.60
2019-05-17T16:48:53.396Z,100795.72
2019-05-17T16:51:23.636Z,100788.97
2019-05-17T16:53:53.863Z,100788.56
2019-05-17T16:56:24.045Z,100793.89
2019-05-17T16:58:54.298Z,100789.72
2019-05-17T17:01:24.592Z,100788.84
2019-05-17T17:03:54.822Z,100788.96
2019-05-17T17:06:25.022Z,100784.66
2019-05-17T17:08:55.688Z,100787.30
2019-05-17T17:11:25.833Z,100779.98
2019-05-17T17:13:55.979Z,100776.59
2019-05-17T17:16:26.163Z,100785.25
2019-05-17T17:18:56.599Z,100785.23
2019-05-17T17:21:26.808Z,100778.42
2019-05-17T17:23:56.853Z,100782.74
2019-05-17T17:26:27.123Z,100777.45
2019-05-17T17:28:57.301Z,100781.50
2019-05-17T17:31:28.588Z,100778.39
2019-05-17T17:33:58.850Z,100771.95
2019-05-17T17:36:29.142Z,100773.73
2019-05-17T17:39:00.424Z,100771.77
2019-05-17T17:41:32.094Z,100774.53
2019-05-17T17:44:02.678Z,100771.93
2019-05-17T17:46:32.846Z,100775.28
2019-05-17T17:49:02.971Z,100779.45
2019-05-17T17:51:33.420Z,100771.93
2019-05-17T17:54:03.512Z,100780.52
2019-05-17T17:56:33.722Z,100778.70
2019-05-17T17:59:04.059Z,100775.47
2019-05-17T18:01:34.221Z,100772.56
2019-05-17T18:04:04.440Z,100775.89
2019-05-17T18:06:34.686Z,100768.23
2019-05-17T18:09:05.854Z,100774.19
2019-05-17T18:11:36.892Z,100778.70
2019-05-17T18:14:13.296Z,100779.91
2019-05-17T18:16:38.924Z,100778.57
2019-05-17T18:19:09.122Z,100777.33
2019-05-17T18:21:39.395Z,100777.44
2019-05-17T18:24:09.732Z,100774.02
2019-05-17T18:26:39.896Z,100771.53
2019-05-17T18:29:11.478Z,100775.41
2019-05-17T18:31:41.671Z,100768.92
2019-05-17T18:34:12.549Z,100768.70
2019-05-17T18:36:42.754Z,100764.66
2019-05-17T18:39:15.060Z,100768.81
2019-05-17T18:41:45.230Z,100769.39
2019-05-17T18:44:27.160Z,100774.89
2019-05-17T18:46:48.332Z,100771.88
2019-05-17T18:49:18.515Z,100774.03
2019-05-17T18:51:48.980Z,100769.53
2019-05-17T18:54:19.579Z,100768.04
2019-05-17T18:56:52.537Z,100770.72
2019-05-17T18:59:25.159Z,100776.33
2019-05-17T19:01:58.927Z,100776.19
2019-05-17T19:04:30.826Z,100774.69
2019-05-17T19:07:02.296Z,100775.23
2019-05-17T19:09:33.036Z,100780.88
2019-05-17T19:12:03.620Z,100776.80
2019-05-17T19:14:42.448Z,100778.36
2019-05-17T19:17:09.033Z,100778.98
2019-05-17T19:19:43.053Z,100774.30
2019-05-17T19:22:19.273Z,100779.98
2019-05-17T19:24:51.310Z,100776.39
2019-05-17T19:27:30.511Z,100780.14
2019-05-17T19:30:03.144Z,100788.05
2019-05-17T19:32:39.402Z,100784.34
2019-05-17T19:35:11.247Z,100781.12
2019-05-17T19:37:54.747Z,100785.72
2019-05-17T19:40:29.346Z,100784.26
2019-05-17T19:43:08.955Z,100786.05
2019-05-17T19:45:39.203Z,100783.64
2019-05-17T19:48:12.687Z,100786.09
2019-05-17T19:50:46.726Z,100794.22
2019-05-17T19:53:22.293Z,100786.89
2019-05-17T19:55:54.648Z,100791.74
2019-05-17T19:58:35.494Z,100792.19
2019-05-17T20:01:06.000Z,100792.28
2019-05-17T20:03:36.428Z,100791.53
2019-05-17T20:06:07.053Z,100788.01
2019-05-17T20:08:52.885Z,100790.19
2019-05-17T20:11:34.885Z,100785.81
2019-05-17T20:14:12.024Z,100790.53
2019-05-17T20:16:43.959Z,100788.23
2019-05-17T20:19:14.258Z,100785.15
2019-05-17T20:21:48.042Z,100790.58
2019-05-17T20:24:20.807Z,100791.38
2019-05-17T20:26:51.011Z,100779.32
2019-05-17T20:29:29.532Z,100788.00
2019-05-17T20:32:03.449Z,100785.11
2019-05-17T20:34:40.697Z,100779.41
2019-05-17T20:37:18.248Z,100779.23
2019-05-17T20:39:50.235Z,100773.84
2019-05-17T20:42:22.808Z,100767.78
2019-05-17T20:44:56.062Z,100768.63
2019-05-17T20:47:26.199Z,100771.64
2019-05-17T20:49:56.378Z,100771.72
2019-05-17T20:52:26.513Z,100764.09
2019-05-17T20:54:56.719Z,100760.25
2019-05-17T20:57:26.901Z,100758.83
2019-05-17T20:59:57.138Z,100760.30
2019-05-17T21:02:27.408Z,100761.44
2019-05-17T21:04:57.732Z,100761.63
2019-05-17T21:07:29.432Z,100757.92
2019-05-17T21:09:59.605Z,100758.20
2019-05-17T21:12:32.619Z,100758.02
2019-05-17T21:15:02.792Z,100764.15
2019-05-17T21:17:33.156Z,100763.73
2019-05-17T21:20:03.640Z,100762.50
2019-05-17T21:22:33.945Z,100763.52
2019-05-17T21:25:04.287Z,100758.58
2019-05-17T21:27:36.058Z,100755.31
2019-05-17T21:30:07.979Z,100762.89
2019-05-17T21:32:38.243Z,100756.43
2019-05-17T21:35:09.367Z,100759.30
2019-05-17T21:37:41.298Z,100762.23
2019-05-17T21:40:12.348Z,100767.36
2019-05-17T21:42:42.648Z,100771.08
2019-05-17T21:45:12.904Z,100766.09
2019-05-17T21:47:43.190Z,100763.03
2019-05-17T21:50:13.560Z,100764.72
2019-05-17T21:52:43.914Z,100756.61
2019-05-17T21:55:14.348Z,100766.67
2019-05-17T21:57:45.738Z,100765.05
2019-05-17T22:00:51.723Z,100765.05
2019-05-17T22:03:22.205Z,100768.72
2019-05-17T22:05:54.065Z,100763.27
2019-05-17T22:08:24.177Z,100764.58
2019-05-17T22:10:54.381Z,100766.13
2019-05-17T22:13:24.503Z,100763.90
2019-05-17T22:15:54.637Z,100769.30
2019-05-17T22:18:24.787Z,100766.13
2019-05-17T22:20:54.903Z,100762.41
2019-05-17T22:23:25.027Z,100766.13
2019-05-17T22:25:55.139Z,100760.50
2019-05-17T22:28:25.360Z,100762.81
2019-05-17T22:30:55.511Z,100767.80
2019-05-17T22:33:25.807Z,100767.22
2019-05-17T22:35:59.989Z,100770.62
2019-05-17T22:38:30.128Z,100768.45
2019-05-17T22:41:00.258Z,100762.87
2019-05-17T22:43:31.382Z,100765.39
2019-05-17T22:46:01.482Z,100760.06
2019-05-17T22:48:31.634Z,100769.05
2019-05-17T22:51:01.770Z,100764.89
2019-05-17T22:53:31.908Z,100764.06
2019-05-17T22:56:02.028Z,100758.05
2019-05-17T22:58:38.752Z,100764.17
2019-05-17T23:01:11.996Z,100760.28
2019-05-17T23:03:46.284Z,100761.77
2019-05-17T23:06:16.702Z,100753.40
2019-05-17T23:08:47.120Z,100749.04
2019-05-17T23:11:17.478Z,100758.49
2019-05-17T23:13:48.821Z,100758.79
2019-05-17T23:16:22.739Z,100750.75
2019-05-17T23:19:12.918Z,100749.67
2019-05-17T23:21:48.484Z,100749.42
2019-05-17T23:24:19.002Z,100753.40
2019-05-17T23:26:49.455Z,100754.66
2019-05-17T23:29:23.955Z,100755.20
2019-05-17T23:31:57.464Z,100750.47
2019-05-17T23:34:28.123Z,100750.42
2019-05-17T23:36:59.750Z,100752.41
2019-05-17T23:39:31.576Z,100748.75
2019-05-17T23:42:01.851Z,100748.45
2019-05-17T23:44:32.067Z,100744.70
2019-05-17T23:47:07.254Z,100748.34
2019-05-17T23:49:34.272Z,100753.09
2019-05-17T23:52:04.540Z,100752.29
2019-05-17T23:54:34.783Z,100751.45
2019-05-17T23:57:04.998Z,100752.41
2019-05-17T23:59:35.224Z,100745.34
